createdAt,value
2018-05-15T00:00:04.054Z,1005.71
2018-05-15T00:01:04.046Z,1005.73
2018-05-15T00:02:04.031Z,1005.73
2018-05-15T00:03:04.025Z,1005.73
2018-05-15T00:04:04.012Z,1005.72
2018-05-15T00:05:04.002Z,1005.73
2018-05-15T00:06:03.991Z,1005.74
2018-05-15T00:07:04.064Z,1005.7
2018-05-15T00:08:03.966Z,1005.73
2018-05-15T00:09:03.950Z,1005.74
2018-05-15T00:10:03.946Z,1005.71
2018-05-15T00:11:03.931Z,1005.74
2018-05-15T00:12:03.916Z,1005.74
2018-05-15T00:13:04.114Z,1005.76
2018-05-15T00:14:03.899Z,1005.76
2018-05-15T00:15:03.881Z,1005.73
2018-05-15T00:16:03.869Z,1005.78
2018-05-15T00:17:03.856Z,1005.74
2018-05-15T00:18:03.849Z,1005.77
2018-05-15T00:19:03.834Z,1005.78
2018-05-15T00:20:03.821Z,1005.78
2018-05-15T00:21:03.810Z,1005.8
2018-05-15T00:22:03.800Z,1005.82
2018-05-15T00:23:03.791Z,1005.82
2018-05-15T00:24:03.796Z,1005.84
2018-05-15T00:25:03.764Z,1005.82
2018-05-15T00:26:03.750Z,1005.85
2018-05-15T00:27:03.739Z,1005.88
2018-05-15T00:28:03.725Z,1005.83
2018-05-15T00:29:03.714Z,1005.86
2018-05-15T00:30:03.706Z,1005.86
2018-05-15T00:31:03.694Z,1005.85
2018-05-15T00:32:03.679Z,1005.89
2018-05-15T00:33:03.667Z,1005.88
2018-05-15T00:34:03.654Z,1005.94
2018-05-15T00:35:03.646Z,1005.94
2018-05-15T00:36:03.630Z,1005.93
2018-05-15T00:37:03.620Z,1005.96
2018-05-15T00:38:03.606Z,1005.99
2018-05-15T00:39:03.594Z,1005.99
2018-05-15T00:40:03.582Z,1006
2018-05-15T00:41:03.570Z,1006.02
2018-05-15T00:42:03.557Z,1005.99
2018-05-15T00:43:03.546Z,1005.97
2018-05-15T00:44:03.533Z,1005.97
2018-05-15T00:45:03.522Z,1005.89
2018-05-15T00:46:03.510Z,1005.94
2018-05-15T00:47:03.498Z,1005.95
2018-05-15T00:48:03.489Z,1005.95
2018-05-15T00:49:03.477Z,1005.95
2018-05-15T00:50:03.473Z,1005.93
2018-05-15T00:51:03.448Z,1005.91
2018-05-15T00:52:03.437Z,1005.94
2018-05-15T00:53:03.423Z,1005.92
2018-05-15T00:54:03.413Z,1005.93
2018-05-15T00:55:03.398Z,1005.95
2018-05-15T00:56:03.390Z,1005.98
2018-05-15T00:57:03.373Z,1005.99
2018-05-15T00:58:03.364Z,1006
2018-05-15T00:59:03.349Z,1006.02
2018-05-15T01:00:03.340Z,1006.01
2018-05-15T01:01:03.327Z,1005.99
2018-05-15T01:02:03.312Z,1005.99
2018-05-15T01:03:03.300Z,1006.01
2018-05-15T01:04:03.287Z,1006.01
2018-05-15T01:05:03.274Z,1006.04
2018-05-15T01:06:03.264Z,1006.02
2018-05-15T01:07:03.249Z,1006.05
2018-05-15T01:08:03.237Z,1006.07
2018-05-15T01:09:03.225Z,1006.02
2018-05-15T01:10:03.212Z,1006.05
2018-05-15T01:11:03.203Z,1006.05
2018-05-15T01:12:03.210Z,1006.04
2018-05-15T01:13:03.177Z,1006.05
2018-05-15T01:14:03.162Z,1006.06
2018-05-15T01:15:03.167Z,1006.02
2018-05-15T01:16:03.137Z,1005.98
2018-05-15T01:17:03.128Z,1005.97
2018-05-15T01:18:03.114Z,1006.04
2018-05-15T01:19:03.106Z,1006.01
2018-05-15T01:20:03.148Z,1006
2018-05-15T01:21:03.075Z,1006.08
2018-05-15T01:22:03.062Z,1006.03
2018-05-15T01:23:03.055Z,1006.05
2018-05-15T01:24:03.044Z,1006.07
2018-05-15T01:25:03.024Z,1006.05
2018-05-15T01:26:03.012Z,1006.07
2018-05-15T01:27:02.998Z,1006.07
2018-05-15T01:28:02.989Z,1006.06
2018-05-15T01:29:02.977Z,1006.06
2018-05-15T01:30:02.964Z,1006.05
2018-05-15T01:31:02.947Z,1006.04
2018-05-15T01:32:02.938Z,1006.08
2018-05-15T01:33:02.933Z,1006.1
2018-05-15T01:34:02.910Z,1006.1
2018-05-15T01:35:02.898Z,1006.1
2018-05-15T01:36:02.884Z,1006.09
2018-05-15T01:37:02.872Z,1006.1
2018-05-15T01:38:02.863Z,1006.1
2018-05-15T01:39:02.847Z,1006.06
2018-05-15T01:40:02.845Z,1006.07
2018-05-15T01:41:02.823Z,1006.07
2018-05-15T01:42:02.810Z,1006.04
2018-05-15T01:43:02.796Z,1006.08
2018-05-15T01:44:02.785Z,1006.07
2018-05-15T01:45:02.774Z,1006.05
2018-05-15T01:46:02.760Z,1006.11
2018-05-15T01:47:02.745Z,1006.04
2018-05-15T01:48:02.737Z,1006.03
2018-05-15T01:49:02.720Z,1006.01
2018-05-15T01:50:02.714Z,1006.03
2018-05-15T01:51:02.698Z,1006.07
2018-05-15T01:52:02.682Z,1006.02
2018-05-15T01:53:02.670Z,1006.01
2018-05-15T01:54:02.657Z,1006.05
2018-05-15T01:55:02.645Z,1006.02
2018-05-15T01:56:02.639Z,1005.99
2018-05-15T01:57:02.621Z,1005.96
2018-05-15T01:58:02.605Z,1005.99
2018-05-15T01:59:02.593Z,1005.96
2018-05-15T02:00:02.580Z,1005.94
2018-05-15T02:01:02.569Z,1005.92
2018-05-15T02:02:02.555Z,1005.94
2018-05-15T02:03:02.545Z,1005.95
2018-05-15T02:04:02.529Z,1005.95
2018-05-15T02:05:02.518Z,1005.9
2018-05-15T02:06:02.505Z,1005.95
2018-05-15T02:07:02.491Z,1005.94
2018-05-15T02:08:02.479Z,1005.91
2018-05-15T02:09:02.466Z,1005.95
2018-05-15T02:10:02.456Z,1005.96
2018-05-15T02:11:02.443Z,1005.94
2018-05-15T02:12:02.427Z,1005.96
2018-05-15T02:13:02.616Z,1005.98
2018-05-15T02:14:02.404Z,1005.98
2018-05-15T02:15:02.388Z,1005.96
2018-05-15T02:16:02.376Z,1005.94
2018-05-15T02:17:02.363Z,1005.95
2018-05-15T02:18:02.350Z,1005.99
2018-05-15T02:19:02.338Z,1005.96
2018-05-15T02:20:02.327Z,1005.96
2018-05-15T02:21:02.315Z,1005.97
2018-05-15T02:22:02.302Z,1005.97
2018-05-15T02:23:02.287Z,1005.99
2018-05-15T02:24:02.274Z,1005.97
2018-05-15T02:25:02.265Z,1006
2018-05-15T02:26:02.248Z,1006.04
2018-05-15T02:27:02.236Z,1006.04
2018-05-15T02:28:02.223Z,1006.07
2018-05-15T02:29:02.210Z,1006.07
2018-05-15T02:30:02.200Z,1006.1
2018-05-15T02:31:02.186Z,1006.11
2018-05-15T02:32:02.170Z,1006.16
2018-05-15T02:33:02.162Z,1006.15
2018-05-15T02:34:02.147Z,1006.15
2018-05-15T02:35:02.134Z,1006.16
2018-05-15T02:36:02.121Z,1006.18
2018-05-15T02:37:02.107Z,1006.18
2018-05-15T02:38:02.110Z,1006.19
2018-05-15T02:39:02.081Z,1006.15
2018-05-15T02:40:02.071Z,1006.14
2018-05-15T02:41:02.060Z,1006.18
2018-05-15T02:42:02.042Z,1006.15
2018-05-15T02:43:02.036Z,1006.16
2018-05-15T02:44:02.017Z,1006.13
2018-05-15T02:45:02.007Z,1006.15
2018-05-15T02:46:01.989Z,1006.15
2018-05-15T02:47:01.979Z,1006.16
2018-05-15T02:48:01.965Z,1006.15
2018-05-15T02:49:01.959Z,1006.15
2018-05-15T02:50:01.942Z,1006.19
2018-05-15T02:51:01.926Z,1006.16
2018-05-15T02:52:01.918Z,1006.18
2018-05-15T02:53:01.913Z,1006.16
2018-05-15T02:54:01.889Z,1006.17
2018-05-15T02:55:01.876Z,1006.15
2018-05-15T02:56:01.861Z,1006.15
2018-05-15T02:57:01.851Z,1006.15
2018-05-15T02:58:01.835Z,1006.17
2018-05-15T02:59:01.825Z,1006.13
2018-05-15T03:00:01.809Z,1006.16
2018-05-15T03:01:01.798Z,1006.17
2018-05-15T03:02:01.784Z,1006.18
2018-05-15T03:03:01.772Z,1006.21
2018-05-15T03:04:01.765Z,1006.18
2018-05-15T03:05:01.745Z,1006.18
2018-05-15T03:06:01.737Z,1006.16
2018-05-15T03:07:01.718Z,1006.21
2018-05-15T03:08:01.706Z,1006.19
2018-05-15T03:09:01.694Z,1006.19
2018-05-15T03:10:01.680Z,1006.21
2018-05-15T03:11:01.667Z,1006.22
2018-05-15T03:12:01.656Z,1006.2
2018-05-15T03:13:01.642Z,1006.23
2018-05-15T03:14:01.629Z,1006.25
2018-05-15T03:15:01.621Z,1006.23
2018-05-15T03:16:01.603Z,1006.24
2018-05-15T03:17:01.591Z,1006.25
2018-05-15T03:18:01.578Z,1006.24
2018-05-15T03:19:01.566Z,1006.25
2018-05-15T03:20:01.552Z,1006.31
2018-05-15T03:21:01.540Z,1006.31
2018-05-15T03:22:01.527Z,1006.32
2018-05-15T03:23:01.515Z,1006.3
2018-05-15T03:24:01.500Z,1006.35
2018-05-15T03:25:01.490Z,1006.34
2018-05-15T03:26:01.474Z,1006.33
2018-05-15T03:27:01.460Z,1006.39
2018-05-15T03:28:01.448Z,1006.39
2018-05-15T03:29:01.441Z,1006.42
2018-05-15T03:30:01.427Z,1006.38
2018-05-15T03:31:01.413Z,1006.38
2018-05-15T03:32:01.602Z,1006.39
2018-05-15T03:33:01.385Z,1006.42
2018-05-15T03:34:01.373Z,1006.41
2018-05-15T03:35:01.359Z,1006.41
2018-05-15T03:36:01.345Z,1006.42
2018-05-15T03:37:01.331Z,1006.38
2018-05-15T03:38:01.318Z,1006.43
2018-05-15T03:39:01.304Z,1006.44
2018-05-15T03:40:01.306Z,1006.39
2018-05-15T03:41:01.279Z,1006.39
2018-05-15T03:42:01.266Z,1006.39
2018-05-15T03:43:01.319Z,1006.38
2018-05-15T03:44:01.238Z,1006.41
2018-05-15T03:45:01.225Z,1006.38
2018-05-15T03:46:01.213Z,1006.37
2018-05-15T03:47:01.203Z,1006.43
2018-05-15T03:48:01.187Z,1006.41
2018-05-15T03:49:01.177Z,1006.41
2018-05-15T03:50:01.161Z,1006.47
2018-05-15T03:51:01.152Z,1006.44
2018-05-15T03:52:01.133Z,1006.43
2018-05-15T03:53:01.121Z,1006.43
2018-05-15T03:54:01.110Z,1006.47
2018-05-15T03:55:01.094Z,1006.47
2018-05-15T03:56:01.082Z,1006.49
2018-05-15T03:57:01.068Z,1006.5
2018-05-15T03:58:01.055Z,1006.42
2018-05-15T03:59:01.041Z,1006.39
2018-05-15T04:00:01.028Z,1006.38
2018-05-15T04:01:01.017Z,1006.39
2018-05-15T04:02:01.006Z,1006.39
2018-05-15T04:03:00.988Z,1006.41
2018-05-15T04:04:00.975Z,1006.43
2018-05-15T04:05:00.964Z,1006.42
2018-05-15T04:06:00.950Z,1006.46
2018-05-15T04:07:00.936Z,1006.47
2018-05-15T04:08:00.928Z,1006.44
2018-05-15T04:09:00.912Z,1006.43
2018-05-15T04:10:00.898Z,1006.41
2018-05-15T04:11:00.928Z,1006.41
2018-05-15T04:12:00.871Z,1006.48
2018-05-15T04:13:01.060Z,1006.46
2018-05-15T04:14:00.847Z,1006.53
2018-05-15T04:15:00.833Z,1006.5
2018-05-15T04:16:00.819Z,1006.53
2018-05-15T04:17:00.810Z,1006.5
2018-05-15T04:18:00.792Z,1006.53
2018-05-15T04:19:00.780Z,1006.55
2018-05-15T04:20:00.766Z,1006.51
2018-05-15T04:21:00.757Z,1006.51
2018-05-15T04:22:00.739Z,1006.52
2018-05-15T04:23:00.727Z,1006.56
2018-05-15T04:24:00.714Z,1006.57
2018-05-15T04:25:00.701Z,1006.53
2018-05-15T04:26:00.688Z,1006.63
2018-05-15T04:27:00.681Z,1006.6
2018-05-15T04:28:00.730Z,1006.6
2018-05-15T04:29:00.649Z,1006.62
2018-05-15T04:30:00.636Z,1006.62
2018-05-15T04:31:00.622Z,1006.61
2018-05-15T04:32:00.608Z,1006.64
2018-05-15T04:33:00.599Z,1006.64
2018-05-15T04:34:00.583Z,1006.61
2018-05-15T04:35:00.628Z,1006.63
2018-05-15T04:36:00.558Z,1006.63
2018-05-15T04:37:00.544Z,1006.64
2018-05-15T04:38:00.537Z,1006.66
2018-05-15T04:39:00.518Z,1006.63
2018-05-15T04:40:00.507Z,1006.63
2018-05-15T04:41:00.491Z,1006.63
2018-05-15T04:42:00.481Z,1006.65
2018-05-15T04:43:00.464Z,1006.69
2018-05-15T04:44:00.635Z,1006.72
2018-05-15T04:45:00.441Z,1006.73
2018-05-15T04:46:00.427Z,1006.74
2018-05-15T04:47:00.413Z,1006.78
2018-05-15T04:48:00.407Z,1006.75
2018-05-15T04:49:00.386Z,1006.76
2018-05-15T04:50:00.380Z,1006.77
2018-05-15T04:51:00.364Z,1006.78
2018-05-15T04:52:00.350Z,1006.79
2018-05-15T04:53:00.336Z,1006.79
2018-05-15T04:54:00.322Z,1006.81
2018-05-15T04:55:00.310Z,1006.79
2018-05-15T04:56:00.296Z,1006.8
2018-05-15T04:57:00.283Z,1006.81
2018-05-15T04:58:00.275Z,1006.81
2018-05-15T04:59:00.258Z,1006.83
2018-05-15T05:00:00.245Z,1006.87
2018-05-15T05:01:00.234Z,1006.81
2018-05-15T05:02:00.238Z,1006.83
2018-05-15T05:03:00.205Z,1006.81
2018-05-15T05:04:00.194Z,1006.86
2018-05-15T05:05:00.179Z,1006.85
2018-05-15T05:06:00.166Z,1006.85
2018-05-15T05:07:00.154Z,1006.87
2018-05-15T05:08:00.145Z,1006.89
2018-05-15T05:09:00.127Z,1006.88
2018-05-15T05:10:00.115Z,1006.89
2018-05-15T05:11:00.108Z,1006.9
2018-05-15T05:12:00.089Z,1006.93
2018-05-15T05:13:00.083Z,1006.93
2018-05-15T05:14:00.065Z,1006.95
2018-05-15T05:15:00.053Z,1006.91
2018-05-15T05:16:00.045Z,1006.91
2018-05-15T05:17:00.026Z,1006.94
2018-05-15T05:18:00.012Z,1006.94
2018-05-15T05:19:00.000Z,1006.92
2018-05-15T05:19:59.987Z,1006.95
2018-05-15T05:21:00.066Z,1006.98
2018-05-15T05:21:59.966Z,1006.96
2018-05-15T05:22:59.947Z,1006.95
2018-05-15T05:23:59.935Z,1006.98
2018-05-15T05:24:59.922Z,1006.96
2018-05-15T05:25:59.912Z,1006.98
2018-05-15T05:26:59.897Z,1007
2018-05-15T05:27:59.884Z,1007.01
2018-05-15T05:28:59.872Z,1006.99
2018-05-15T05:29:59.858Z,1006.99
2018-05-15T05:30:59.847Z,1007
2018-05-15T05:31:59.835Z,1006.98
2018-05-15T05:32:59.823Z,1007.03
2018-05-15T05:33:59.806Z,1007.02
2018-05-15T05:34:59.795Z,1007.02
2018-05-15T05:35:59.782Z,1006.99
2018-05-15T05:36:59.776Z,1007.01
2018-05-15T05:37:59.758Z,1007.01
2018-05-15T05:38:59.751Z,1007.08
2018-05-15T05:39:59.740Z,1007.12
2018-05-15T05:40:59.720Z,1007.15
2018-05-15T05:41:59.706Z,1007.15
2018-05-15T05:42:59.694Z,1007.18
2018-05-15T05:43:59.682Z,1007.17
2018-05-15T05:44:59.680Z,1007.22
2018-05-15T05:45:59.657Z,1007.22
2018-05-15T05:46:59.645Z,1007.2
2018-05-15T05:47:59.633Z,1007.19
2018-05-15T05:48:59.619Z,1007.21
2018-05-15T05:49:59.606Z,1007.22
2018-05-15T05:50:59.597Z,1007.27
2018-05-15T05:51:59.598Z,1007.25
2018-05-15T05:52:59.570Z,1007.29
2018-05-15T05:53:59.556Z,1007.31
2018-05-15T05:54:59.545Z,1007.28
2018-05-15T05:55:59.736Z,1007.31
2018-05-15T05:56:59.520Z,1007.33
2018-05-15T05:57:59.507Z,1007.31
2018-05-15T05:58:59.496Z,1007.36
2018-05-15T05:59:59.484Z,1007.38
2018-05-15T06:00:59.472Z,1007.36
2018-05-15T06:01:59.460Z,1007.36
2018-05-15T06:02:59.446Z,1007.35
2018-05-15T06:03:59.434Z,1007.36
2018-05-15T06:04:59.422Z,1007.32
2018-05-15T06:05:59.412Z,1007.35
2018-05-15T06:06:59.397Z,1007.37
2018-05-15T06:07:59.385Z,1007.38
2018-05-15T06:08:59.380Z,1007.41
2018-05-15T06:09:59.364Z,1007.43
2018-05-15T06:10:59.446Z,1007.42
2018-05-15T06:11:59.341Z,1007.39
2018-05-15T06:12:59.530Z,1007.42
2018-05-15T06:13:59.316Z,1007.43
2018-05-15T06:14:59.300Z,1007.42
2018-05-15T06:15:59.291Z,1007.44
2018-05-15T06:16:59.340Z,1007.51
2018-05-15T06:17:59.267Z,1007.52
2018-05-15T06:18:59.253Z,1007.52
2018-05-15T06:19:59.244Z,1007.6
2018-05-15T06:20:59.485Z,1007.58
2018-05-15T06:21:59.216Z,1007.58
2018-05-15T06:22:59.210Z,1007.55
2018-05-15T06:23:59.191Z,1007.61
2018-05-15T06:24:59.187Z,1007.6
2018-05-15T06:25:59.174Z,1007.6
2018-05-15T06:26:59.162Z,1007.6
2018-05-15T06:27:59.147Z,1007.57
2018-05-15T06:28:59.136Z,1007.6
2018-05-15T06:29:59.124Z,1007.57
2018-05-15T06:30:59.115Z,1007.59
2018-05-15T06:31:59.106Z,1007.58
2018-05-15T06:32:59.087Z,1007.51
2018-05-15T06:33:59.076Z,1007.6
2018-05-15T06:34:59.064Z,1007.57
2018-05-15T06:35:59.058Z,1007.59
2018-05-15T06:36:59.042Z,1007.62
2018-05-15T06:37:59.030Z,1007.67
2018-05-15T06:38:59.023Z,1007.58
2018-05-15T06:39:59.005Z,1007.62
2018-05-15T06:40:59.000Z,1007.6
2018-05-15T06:41:58.983Z,1007.63
2018-05-15T06:42:58.973Z,1007.64
2018-05-15T06:43:58.962Z,1007.64
2018-05-15T06:44:58.948Z,1007.66
2018-05-15T06:45:58.936Z,1007.67
2018-05-15T06:46:58.924Z,1007.67
2018-05-15T06:47:58.914Z,1007.7
2018-05-15T06:48:58.903Z,1007.66
2018-05-15T06:49:58.893Z,1007.63
2018-05-15T06:50:58.880Z,1007.65
2018-05-15T06:51:58.868Z,1007.61
2018-05-15T06:52:58.863Z,1007.67
2018-05-15T06:53:58.844Z,1007.59
2018-05-15T06:54:58.832Z,1007.65
2018-05-15T06:55:58.824Z,1007.62
2018-05-15T06:56:58.812Z,1007.68
2018-05-15T06:57:58.803Z,1007.63
2018-05-15T06:58:58.792Z,1007.69
2018-05-15T06:59:58.780Z,1007.65
2018-05-15T07:00:58.765Z,1007.63
2018-05-15T07:01:58.757Z,1007.66
2018-05-15T07:02:58.744Z,1007.71
2018-05-15T07:03:58.735Z,1007.77
2018-05-15T07:04:58.725Z,1007.77
2018-05-15T07:05:58.711Z,1007.75
2018-05-15T07:06:58.699Z,1007.78
2018-05-15T07:07:58.692Z,1007.76
2018-05-15T07:08:58.684Z,1007.73
2018-05-15T07:09:58.666Z,1007.76
2018-05-15T07:10:58.658Z,1007.74
2018-05-15T07:11:58.645Z,1007.77
2018-05-15T07:12:58.635Z,1007.73
2018-05-15T07:13:58.671Z,1007.7
2018-05-15T07:14:58.614Z,1007.73
2018-05-15T07:15:58.603Z,1007.73
2018-05-15T07:16:58.591Z,1007.73
2018-05-15T07:17:58.580Z,1007.71
2018-05-15T07:18:58.577Z,1007.75
2018-05-15T07:19:58.559Z,1007.78
2018-05-15T07:20:58.548Z,1007.77
2018-05-15T07:21:58.547Z,1007.73
2018-05-15T07:22:58.531Z,1007.74
2018-05-15T07:23:58.525Z,1007.78
2018-05-15T07:24:58.507Z,1007.93
2018-05-15T07:25:58.496Z,1007.99
2018-05-15T07:26:58.488Z,1007.99
2018-05-15T07:27:58.475Z,1008.04
2018-05-15T07:28:58.464Z,1008.12
2018-05-15T07:29:58.458Z,1008.12
2018-05-15T07:30:58.448Z,1008.16
2018-05-15T07:31:58.439Z,1008.15
2018-05-15T07:32:58.433Z,1008.14
2018-05-15T07:33:58.424Z,1008.22
2018-05-15T07:34:58.414Z,1008.25
2018-05-15T07:35:58.410Z,1008.28
2018-05-15T07:36:58.407Z,1008.25
2018-05-15T07:37:58.396Z,1008.26
2018-05-15T07:38:58.393Z,1008.29
2018-05-15T07:39:58.386Z,1008.29
2018-05-15T07:40:58.378Z,1008.31
2018-05-15T07:41:58.373Z,1008.32
2018-05-15T07:42:58.370Z,1008.31
2018-05-15T07:43:58.363Z,1008.3
2018-05-15T07:44:58.362Z,1008.33
2018-05-15T07:45:58.357Z,1008.36
2018-05-15T07:46:58.352Z,1008.34
2018-05-15T07:47:58.348Z,1008.3
2018-05-15T07:48:58.344Z,1008.32
2018-05-15T07:49:58.340Z,1008.36
2018-05-15T07:50:58.337Z,1008.37
2018-05-15T07:51:58.336Z,1008.38
2018-05-15T07:52:58.332Z,1008.42
2018-05-15T07:53:58.328Z,1008.36
2018-05-15T07:54:58.327Z,1008.37
2018-05-15T07:55:58.327Z,1008.38
2018-05-15T07:56:58.320Z,1008.37
2018-05-15T07:57:58.318Z,1008.37
2018-05-15T07:58:58.317Z,1008.41
2018-05-15T07:59:58.314Z,1008.4
2018-05-15T08:00:58.315Z,1008.4
2018-05-15T08:01:58.434Z,1008.42
2018-05-15T08:02:58.308Z,1008.47
2018-05-15T08:03:58.306Z,1008.5
2018-05-15T08:04:58.305Z,1008.46
2018-05-15T08:05:58.305Z,1008.51
2018-05-15T08:06:58.303Z,1008.54
2018-05-15T08:07:58.302Z,1008.59
2018-05-15T08:08:58.314Z,1008.63
2018-05-15T08:09:58.300Z,1008.63
2018-05-15T08:10:58.299Z,1008.65
2018-05-15T08:11:58.301Z,1008.68
2018-05-15T08:12:58.498Z,1008.67
2018-05-15T08:13:58.294Z,1008.66
2018-05-15T08:14:58.294Z,1008.66
2018-05-15T08:15:58.295Z,1008.67
2018-05-15T08:16:58.297Z,1008.63
2018-05-15T08:17:58.316Z,1008.61
2018-05-15T08:18:58.295Z,1008.62
2018-05-15T08:19:58.295Z,1008.59
2018-05-15T08:20:58.295Z,1008.52
2018-05-15T08:21:58.295Z,1008.5
2018-05-15T08:22:58.296Z,1008.47
2018-05-15T08:23:58.302Z,1008.64
2018-05-15T08:24:58.301Z,1008.55
2018-05-15T08:25:58.297Z,1008.46
2018-05-15T08:26:58.299Z,1008.47
2018-05-15T08:27:58.301Z,1008.39
2018-05-15T08:28:58.299Z,1008.52
2018-05-15T08:29:58.306Z,1008.62
2018-05-15T08:30:58.417Z,1008.68
2018-05-15T08:31:58.297Z,1008.66
2018-05-15T08:32:58.303Z,1008.68
2018-05-15T08:33:58.297Z,1008.46
2018-05-15T08:34:58.298Z,1008.57
2018-05-15T08:35:58.296Z,1008.45
2018-05-15T08:36:58.296Z,1008.35
2018-05-15T08:37:58.298Z,1008.34
2018-05-15T08:38:58.299Z,1008.33
2018-05-15T08:39:58.297Z,1008.39
2018-05-15T08:40:58.297Z,1008.37
2018-05-15T08:41:58.296Z,1008.36
2018-05-15T08:42:58.292Z,1008.35
2018-05-15T08:43:58.289Z,1008.38
2018-05-15T08:44:58.286Z,1008.4
2018-05-15T08:45:58.286Z,1008.35
2018-05-15T08:46:58.284Z,1008.37
2018-05-15T08:47:58.287Z,1008.33
2018-05-15T08:48:58.277Z,1008.35
2018-05-15T08:49:58.278Z,1008.33
2018-05-15T08:50:58.276Z,1008.34
2018-05-15T08:51:58.268Z,1008.29
2018-05-15T08:52:58.270Z,1008.36
2018-05-15T08:53:58.265Z,1008.33
2018-05-15T08:54:58.260Z,1008.33
2018-05-15T08:55:58.255Z,1008.33
2018-05-15T08:56:58.257Z,1008.34
2018-05-15T08:57:58.247Z,1008.3
2018-05-15T08:58:58.246Z,1008.34
2018-05-15T08:59:58.240Z,1008.33
2018-05-15T09:00:58.233Z,1008.34
2018-05-15T09:01:58.233Z,1008.33
2018-05-15T09:02:58.226Z,1008.39
2018-05-15T09:03:58.222Z,1008.35
2018-05-15T09:04:58.219Z,1008.37
2018-05-15T09:05:58.209Z,1008.37
2018-05-15T09:06:58.205Z,1008.37
2018-05-15T09:07:58.203Z,1008.34
2018-05-15T09:08:58.196Z,1008.4
2018-05-15T09:09:58.191Z,1008.4
2018-05-15T09:10:58.189Z,1008.35
2018-05-15T09:11:58.180Z,1008.32
2018-05-15T09:12:58.174Z,1008.41
2018-05-15T09:13:58.169Z,1008.39
2018-05-15T09:14:58.169Z,1008.35
2018-05-15T09:15:58.158Z,1008.45
2018-05-15T09:16:58.161Z,1008.4
2018-05-15T09:17:58.147Z,1008.35
2018-05-15T09:18:58.150Z,1008.32
2018-05-15T09:19:58.137Z,1008.3
2018-05-15T09:20:58.131Z,1008.32
2018-05-15T09:21:58.123Z,1008.28
2018-05-15T09:22:58.117Z,1008.34
2018-05-15T09:23:58.113Z,1008.23
2018-05-15T09:24:58.108Z,1008.25
2018-05-15T09:25:58.105Z,1008.27
2018-05-15T09:26:58.098Z,1008.27
2018-05-15T09:27:58.094Z,1008.24
2018-05-15T09:28:58.083Z,1008.22
2018-05-15T09:29:58.082Z,1008.21
2018-05-15T09:30:58.071Z,1008.22
2018-05-15T09:31:58.064Z,1008.25
2018-05-15T09:32:58.059Z,1008.19
2018-05-15T09:33:58.053Z,1008.21
2018-05-15T09:34:58.050Z,1008.21
2018-05-15T09:35:58.042Z,1008.24
2018-05-15T09:36:58.035Z,1008.2
2018-05-15T09:37:58.029Z,1008.26
2018-05-15T09:38:58.023Z,1008.27
2018-05-15T09:39:58.018Z,1008.27
2018-05-15T09:40:58.011Z,1008.25
2018-05-15T09:41:58.004Z,1008.22
2018-05-15T09:42:57.998Z,1008.25
2018-05-15T09:43:57.993Z,1008.24
2018-05-15T09:44:57.987Z,1008.21
2018-05-15T09:45:57.979Z,1008.29
2018-05-15T09:46:58.068Z,1008.29
2018-05-15T09:47:57.967Z,1008.27
2018-05-15T09:48:57.961Z,1008.28
2018-05-15T09:49:57.953Z,1008.3
2018-05-15T09:50:57.948Z,1008.27
2018-05-15T09:51:57.943Z,1008.26
2018-05-15T09:52:57.936Z,1008.29
2018-05-15T09:53:57.929Z,1008.28
2018-05-15T09:54:57.923Z,1008.33
2018-05-15T09:55:57.917Z,1008.29
2018-05-15T09:56:57.909Z,1008.31
2018-05-15T09:57:57.912Z,1008.29
2018-05-15T09:58:57.900Z,1008.28
2018-05-15T09:59:57.898Z,1008.32
2018-05-15T10:00:57.886Z,1008.28
2018-05-15T10:01:57.883Z,1008.26
2018-05-15T10:02:57.872Z,1008.27
2018-05-15T10:03:57.865Z,1008.28
2018-05-15T10:04:57.863Z,1008.25
2018-05-15T10:05:57.854Z,1008.3
2018-05-15T10:06:57.847Z,1008.26
2018-05-15T10:07:57.985Z,1008.31
2018-05-15T10:08:57.835Z,1008.3
2018-05-15T10:09:57.832Z,1008.28
2018-05-15T10:10:57.824Z,1008.32
2018-05-15T10:11:57.827Z,1008.32
2018-05-15T10:12:57.815Z,1008.34
2018-05-15T10:13:57.816Z,1008.34
2018-05-15T10:14:57.801Z,1008.34
2018-05-15T10:15:57.792Z,1008.38
2018-05-15T10:16:57.791Z,1008.33
2018-05-15T10:17:57.782Z,1008.31
2018-05-15T10:18:57.780Z,1008.26
2018-05-15T10:19:57.771Z,1008.33
2018-05-15T10:20:57.767Z,1008.39
2018-05-15T10:21:57.759Z,1008.46
2018-05-15T10:22:57.759Z,1008.58
2018-05-15T10:23:57.749Z,1008.61
2018-05-15T10:24:57.745Z,1008.52
2018-05-15T10:25:57.738Z,1008.51
2018-05-15T10:26:57.733Z,1008.52
2018-05-15T10:27:57.737Z,1008.54
2018-05-15T10:28:57.734Z,1008.5
2018-05-15T10:29:57.744Z,1008.58
2018-05-15T10:30:57.722Z,1008.46
2018-05-15T10:31:57.716Z,1008.45
2018-05-15T10:32:57.711Z,1008.37
2018-05-15T10:33:57.708Z,1008.35
2018-05-15T10:34:57.704Z,1008.36
2018-05-15T10:35:57.702Z,1008.4
2018-05-15T10:36:57.700Z,1008.38
2018-05-15T10:37:57.698Z,1008.35
2018-05-15T10:38:57.697Z,1008.34
2018-05-15T10:39:57.692Z,1008.33
2018-05-15T10:40:57.689Z,1008.35
2018-05-15T10:41:57.688Z,1008.29
2018-05-15T10:42:57.686Z,1008.24
2018-05-15T10:43:57.714Z,1008.26
2018-05-15T10:44:57.692Z,1008.22
2018-05-15T10:45:57.686Z,1008.2
2018-05-15T10:46:57.684Z,1008.23
2018-05-15T10:47:57.679Z,1008.24
2018-05-15T10:48:57.676Z,1008.26
2018-05-15T10:49:57.675Z,1008.21
2018-05-15T10:50:57.674Z,1008.22
2018-05-15T10:51:57.670Z,1008.22
2018-05-15T10:52:57.669Z,1008.2
2018-05-15T10:53:57.668Z,1008.2
2018-05-15T10:54:57.667Z,1008.25
2018-05-15T10:55:57.664Z,1008.16
2018-05-15T10:56:57.662Z,1008.18
2018-05-15T10:57:57.661Z,1008.23
2018-05-15T10:58:57.660Z,1008.18
2018-05-15T10:59:57.662Z,1008.19
2018-05-15T11:00:57.658Z,1008.27
2018-05-15T11:01:57.660Z,1008.26
2018-05-15T11:02:57.656Z,1008.26
2018-05-15T11:03:57.658Z,1008.28
2018-05-15T11:04:57.656Z,1008.23
2018-05-15T11:05:57.661Z,1008.17
2018-05-15T11:06:57.660Z,1008.23
2018-05-15T11:07:57.659Z,1008.2
2018-05-15T11:08:57.662Z,1008.19
2018-05-15T11:09:57.664Z,1008.11
2018-05-15T11:10:57.666Z,1008.18
2018-05-15T11:11:57.667Z,1008.11
2018-05-15T11:12:57.668Z,1008.17
2018-05-15T11:13:57.668Z,1008.14
2018-05-15T11:14:57.670Z,1008.16
2018-05-15T11:15:57.675Z,1008.15
2018-05-15T11:16:57.682Z,1008.15
2018-05-15T11:17:57.678Z,1008.21
2018-05-15T11:18:57.685Z,1008.15
2018-05-15T11:19:57.688Z,1008.17
2018-05-15T11:20:57.687Z,1008.22
2018-05-15T11:21:57.692Z,1008.19
2018-05-15T11:22:57.694Z,1008.23
2018-05-15T11:23:57.697Z,1008.23
2018-05-15T11:24:57.701Z,1008.2
2018-05-15T11:25:57.703Z,1008.2
2018-05-15T11:26:57.710Z,1008.2
2018-05-15T11:27:57.714Z,1008.2
2018-05-15T11:28:57.717Z,1008.23
2018-05-15T11:29:57.727Z,1008.19
2018-05-15T11:30:57.725Z,1008.21
2018-05-15T11:31:57.732Z,1008.24
2018-05-15T11:32:57.736Z,1008.24
2018-05-15T11:33:57.742Z,1008.26
2018-05-15T11:34:57.748Z,1008.3
2018-05-15T11:35:57.845Z,1008.32
2018-05-15T11:36:57.760Z,1008.27
2018-05-15T11:37:57.764Z,1008.3
2018-05-15T11:38:57.771Z,1008.35
2018-05-15T11:39:57.774Z,1008.27
2018-05-15T11:40:57.779Z,1008.3
2018-05-15T11:41:57.859Z,1008.3
2018-05-15T11:42:57.796Z,1008.25
2018-05-15T11:43:57.801Z,1008.25
2018-05-15T11:44:57.808Z,1008.25
2018-05-15T11:45:57.815Z,1008.26
2018-05-15T11:46:57.815Z,1008.26
2018-05-15T11:47:58.092Z,1008.29
2018-05-15T11:48:58.540Z,1008.31
2018-05-15T11:49:58.400Z,1008.27
2018-05-15T11:50:58.747Z,1008.24
2018-05-15T11:51:58.610Z,1008.27
2018-05-15T11:52:58.740Z,1008.24
2018-05-15T11:53:57.963Z,1008.25
2018-05-15T11:54:57.867Z,1008.2
2018-05-15T11:55:57.978Z,1008.2
2018-05-15T11:56:57.879Z,1008.24
2018-05-15T11:57:57.927Z,1008.22
2018-05-15T11:58:57.889Z,1008.15
2018-05-15T11:59:57.970Z,1008.23
2018-05-15T12:00:57.901Z,1008.17
2018-05-15T12:01:57.907Z,1008.14
2018-05-15T12:02:57.920Z,1008.17
2018-05-15T12:03:57.958Z,1008.12
2018-05-15T12:04:57.928Z,1008.1
2018-05-15T12:05:57.934Z,1008.06
2018-05-15T12:06:57.937Z,1008.06
2018-05-15T12:07:57.954Z,1008.05